createdAt,value
2022-11-03T00:00:26.270Z,1013.10
2022-11-03T00:01:26.473Z,1013.07
2022-11-03T00:02:26.339Z,1013.10
2022-11-03T00:03:26.230Z,1013.06
2022-11-03T00:04:26.236Z,1013.10
2022-11-03T00:05:26.213Z,1013.02
2022-11-03T00:06:26.183Z,1013.06
2022-11-03T00:07:26.214Z,1013.04
2022-11-03T00:08:26.186Z,1013.04
2022-11-03T00:09:26.194Z,1013.05
2022-11-03T00:10:26.140Z,1013.03
2022-11-03T00:11:26.137Z,1012.98
2022-11-03T00:12:26.123Z,1012.95
2022-11-03T00:13:26.232Z,1012.89
2022-11-03T00:14:26.110Z,1012.93
2022-11-03T00:15:26.084Z,1012.92
2022-11-03T00:16:26.058Z,1012.88
2022-11-03T00:17:26.066Z,1012.90
2022-11-03T00:18:26.040Z,1012.92
2022-11-03T00:19:26.235Z,1012.96
2022-11-03T00:20:26.014Z,1012.82
2022-11-03T00:21:26.014Z,1012.80
2022-11-03T00:22:25.996Z,1012.92
2022-11-03T00:23:25.977Z,1012.90
2022-11-03T00:24:25.956Z,1012.90
2022-11-03T00:25:26.057Z,1012.87
2022-11-03T00:26:25.937Z,1012.86
2022-11-03T00:27:25.928Z,1012.87
2022-11-03T00:28:25.926Z,1012.89
2022-11-03T00:29:25.906Z,1012.92
2022-11-03T00:30:25.925Z,1012.87
2022-11-03T00:31:26.599Z,1012.91
2022-11-03T00:32:25.858Z,1012.86
2022-11-03T00:33:25.869Z,1012.81
2022-11-03T00:34:25.831Z,1012.81
2022-11-03T00:35:25.821Z,1012.76
2022-11-03T00:36:25.810Z,1012.86
2022-11-03T00:37:25.818Z,1012.80
2022-11-03T00:38:25.793Z,1012.83
2022-11-03T00:39:25.771Z,1012.79
2022-11-03T00:40:25.761Z,1012.85
2022-11-03T00:41:25.750Z,1012.81
2022-11-03T00:42:25.724Z,1012.81
2022-11-03T00:43:25.764Z,1012.78
2022-11-03T00:44:25.729Z,1012.76
2022-11-03T00:45:25.698Z,1012.75
2022-11-03T00:46:25.675Z,1012.77
2022-11-03T00:47:25.671Z,1012.73
2022-11-03T00:48:25.654Z,1012.76
2022-11-03T00:49:25.679Z,1012.72
2022-11-03T00:50:25.635Z,1012.78
2022-11-03T00:51:25.616Z,1012.80
2022-11-03T00:52:25.610Z,1012.75
2022-11-03T00:53:25.605Z,1012.75
2022-11-03T00:54:25.579Z,1012.81
2022-11-03T00:55:25.596Z,1012.73
2022-11-03T00:56:25.549Z,1012.79
2022-11-03T00:57:25.565Z,1012.85
2022-11-03T00:58:30.125Z,1012.81
2022-11-03T00:59:25.521Z,1012.79
2022-11-03T01:00:25.499Z,1012.82
2022-11-03T01:01:26.067Z,1012.79
2022-11-03T01:02:25.516Z,1012.78
2022-11-03T01:03:25.756Z,1012.72
2022-11-03T01:04:25.450Z,1012.74
2022-11-03T01:05:25.457Z,1012.78
2022-11-03T01:06:25.429Z,1012.70
2022-11-03T01:07:25.453Z,1012.70
2022-11-03T01:08:27.669Z,1012.66
2022-11-03T01:09:25.388Z,1012.65
2022-11-03T01:10:25.407Z,1012.68
2022-11-03T01:11:25.360Z,1012.68
2022-11-03T01:12:25.369Z,1012.69
2022-11-03T01:13:25.461Z,1012.71
2022-11-03T01:14:25.325Z,1012.71
2022-11-03T01:15:25.334Z,1012.71
2022-11-03T01:16:25.313Z,1012.74
2022-11-03T01:17:25.292Z,1012.76
2022-11-03T01:18:25.292Z,1012.77
2022-11-03T01:19:25.412Z,1012.72
2022-11-03T01:20:26.224Z,1012.70
2022-11-03T01:21:25.248Z,1012.59
2022-11-03T01:22:25.227Z,1012.64
2022-11-03T01:23:25.207Z,1012.66
2022-11-03T01:24:26.024Z,1012.60
2022-11-03T01:25:25.249Z,1012.58
2022-11-03T01:26:25.194Z,1012.58
2022-11-03T01:27:25.153Z,1012.53
2022-11-03T01:28:25.136Z,1012.52
2022-11-03T01:29:25.135Z,1012.53
2022-11-03T01:30:25.116Z,1012.50
2022-11-03T01:31:25.133Z,1012.44
2022-11-03T01:32:25.097Z,1012.33
2022-11-03T01:33:25.086Z,1012.33
2022-11-03T01:34:25.065Z,1012.30
2022-11-03T01:35:25.047Z,1012.27
2022-11-03T01:36:25.040Z,1012.31
2022-11-03T01:37:28.928Z,1012.24
2022-11-03T01:38:25.008Z,1012.20
2022-11-03T01:39:25.028Z,1012.20
2022-11-03T01:40:25.001Z,1012.20
2022-11-03T01:41:25.179Z,1012.19
2022-11-03T01:42:25.251Z,1012.17
2022-11-03T01:43:25.061Z,1012.14
2022-11-03T01:44:25.891Z,1012.17
2022-11-03T01:45:24.922Z,1012.06
2022-11-03T01:46:24.933Z,1012.10
2022-11-03T01:47:24.909Z,1012.07
2022-11-03T01:48:24.885Z,1012.08
2022-11-03T01:49:25.065Z,1012.08
2022-11-03T01:50:24.863Z,1012.04
2022-11-03T01:51:24.869Z,1011.97
2022-11-03T01:52:24.891Z,1011.97
2022-11-03T01:53:24.847Z,1011.94
2022-11-03T01:54:24.814Z,1011.99
2022-11-03T01:55:24.842Z,1011.91
2022-11-03T01:56:24.785Z,1011.86
2022-11-03T01:57:24.774Z,1011.82
2022-11-03T01:58:24.784Z,1011.75
2022-11-03T01:59:24.742Z,1011.80
2022-11-03T02:00:25.744Z,1011.80
2022-11-03T02:01:24.831Z,1011.77
2022-11-03T02:02:24.822Z,1011.84
2022-11-03T02:03:24.684Z,1011.86
2022-11-03T02:04:24.675Z,1011.82
2022-11-03T02:05:24.685Z,1011.78
2022-11-03T02:06:24.674Z,1011.78
2022-11-03T02:07:24.659Z,1011.74
2022-11-03T02:08:28.512Z,1011.81
2022-11-03T02:09:24.605Z,1011.74
2022-11-03T02:10:24.596Z,1011.81
2022-11-03T02:11:24.718Z,1011.76
2022-11-03T02:12:24.587Z,1011.82
2022-11-03T02:13:24.567Z,1011.71
2022-11-03T02:14:25.265Z,1011.68
2022-11-03T02:15:24.530Z,1011.72
2022-11-03T02:16:24.522Z,1011.64
2022-11-03T02:17:25.213Z,1011.69
2022-11-03T02:18:24.509Z,1011.59
2022-11-03T02:19:24.489Z,1011.60
2022-11-03T02:20:24.468Z,1011.64
2022-11-03T02:21:24.449Z,1011.51
2022-11-03T02:22:24.463Z,1011.53
2022-11-03T02:23:24.452Z,1011.53
2022-11-03T02:24:24.571Z,1011.52
2022-11-03T02:25:24.423Z,1011.50
2022-11-03T02:26:24.391Z,1011.55
2022-11-03T02:27:24.380Z,1011.52
2022-11-03T02:28:24.373Z,1011.54
2022-11-03T02:29:24.422Z,1011.52
2022-11-03T02:30:25.362Z,1011.52
2022-11-03T02:31:24.322Z,1011.48
2022-11-03T02:32:24.324Z,1011.48
2022-11-03T02:33:24.565Z,1011.52
2022-11-03T02:34:24.287Z,1011.43
2022-11-03T02:35:24.402Z,1011.43
2022-11-03T02:36:24.276Z,1011.40
2022-11-03T02:37:24.239Z,1011.40
2022-11-03T02:38:24.569Z,1011.33
2022-11-03T02:39:24.236Z,1011.37
2022-11-03T02:40:24.218Z,1011.25
2022-11-03T02:41:24.307Z,1011.25
2022-11-03T02:42:24.176Z,1011.28
2022-11-03T02:43:24.186Z,1011.25
2022-11-03T02:44:24.157Z,1011.27
2022-11-03T02:45:24.129Z,1011.22
2022-11-03T02:46:24.144Z,1011.19
2022-11-03T02:47:24.408Z,1011.16
2022-11-03T02:48:25.109Z,1011.16
2022-11-03T02:49:24.086Z,1011.19
2022-11-03T02:50:24.079Z,1011.15
2022-11-03T02:51:24.058Z,1011.15
2022-11-03T02:52:24.061Z,1011.11
2022-11-03T02:53:24.048Z,1011.20
2022-11-03T02:54:24.020Z,1011.15
2022-11-03T02:55:24.009Z,1011.17
2022-11-03T02:56:24.057Z,1011.17
2022-11-03T02:57:23.971Z,1011.14
2022-11-03T02:58:23.971Z,1011.11
2022-11-03T02:59:24.072Z,1011.16
2022-11-03T03:00:24.902Z,1011.12
2022-11-03T03:01:24.004Z,1011.12
2022-11-03T03:02:23.978Z,1011.12
2022-11-03T03:03:23.913Z,1011.07
2022-11-03T03:04:24.541Z,1011.11
2022-11-03T03:05:23.894Z,1011.08
2022-11-03T03:06:23.898Z,1011.12
2022-11-03T03:07:23.843Z,1011.06
2022-11-03T03:08:23.843Z,1011.05
2022-11-03T03:09:23.814Z,1011.03
2022-11-03T03:10:27.934Z,1010.97
2022-11-03T03:11:23.829Z,1011.00
2022-11-03T03:12:23.818Z,1010.94
2022-11-03T03:13:23.787Z,1010.96
2022-11-03T03:14:24.449Z,1010.96
2022-11-03T03:15:23.754Z,1011.01
2022-11-03T03:16:23.835Z,1010.99
2022-11-03T03:17:23.740Z,1010.99
2022-11-03T03:18:23.973Z,1010.93
2022-11-03T03:19:23.728Z,1010.95
2022-11-03T03:20:23.687Z,1010.94
2022-11-03T03:21:23.940Z,1010.94
2022-11-03T03:22:23.947Z,1010.93
2022-11-03T03:23:23.638Z,1010.89
2022-11-03T03:24:24.369Z,1010.94
2022-11-03T03:25:23.626Z,1010.93
2022-11-03T03:26:23.609Z,1010.90
2022-11-03T03:27:23.593Z,1010.89
2022-11-03T03:28:23.691Z,1010.83
2022-11-03T03:29:23.570Z,1010.81
2022-11-03T03:30:23.550Z,1010.85
2022-11-03T03:31:24.223Z,1010.80
2022-11-03T03:32:23.553Z,1010.85
2022-11-03T03:33:23.601Z,1010.83
2022-11-03T03:34:34.574Z,1010.86
2022-11-03T03:35:24.483Z,1010.78
2022-11-03T03:36:23.477Z,1010.85
2022-11-03T03:37:23.463Z,1010.86
2022-11-03T03:38:23.452Z,1010.82
2022-11-03T03:39:23.451Z,1010.81
2022-11-03T03:40:23.474Z,1010.82
2022-11-03T03:41:23.424Z,1010.78
2022-11-03T03:42:23.413Z,1010.78
2022-11-03T03:43:23.385Z,1010.79
2022-11-03T03:44:23.371Z,1010.72
2022-11-03T03:45:23.364Z,1010.72
2022-11-03T03:46:23.364Z,1010.77
2022-11-03T03:47:23.363Z,1010.69
2022-11-03T03:48:23.325Z,1010.69
2022-11-03T03:49:23.312Z,1010.66
2022-11-03T03:50:23.314Z,1010.69
2022-11-03T03:51:23.298Z,1010.71
2022-11-03T03:52:24.015Z,1010.70
2022-11-03T03:53:23.285Z,1010.63
2022-11-03T03:54:23.247Z,1010.60
2022-11-03T03:56:23.496Z,1010.60
2022-11-03T03:57:23.347Z,1010.63
2022-11-03T03:58:23.201Z,1010.59
2022-11-03T03:59:23.997Z,1010.56
2022-11-03T04:00:23.163Z,1010.56
2022-11-03T04:01:23.278Z,1010.55
2022-11-03T04:02:24.036Z,1010.58
2022-11-03T04:03:23.141Z,1010.60
2022-11-03T04:04:23.139Z,1010.57
2022-11-03T04:05:23.110Z,1010.63
2022-11-03T04:06:23.107Z,1010.65
2022-11-03T04:07:23.112Z,1010.53
2022-11-03T04:08:23.080Z,1010.54
2022-11-03T04:09:23.159Z,1010.58
2022-11-03T04:10:23.073Z,1010.55
2022-11-03T04:11:23.079Z,1010.53
2022-11-03T04:12:24.000Z,1010.48
2022-11-03T04:13:22.981Z,1010.47
2022-11-03T04:14:22.992Z,1010.47
2022-11-03T04:15:22.981Z,1010.49
2022-11-03T04:16:22.958Z,1010.47
2022-11-03T04:17:22.952Z,1010.45
2022-11-03T04:18:22.924Z,1010.43
2022-11-03T04:19:23.462Z,1010.44
2022-11-03T04:20:22.903Z,1010.43
2022-11-03T04:21:22.903Z,1010.44
2022-11-03T04:22:22.905Z,1010.40
2022-11-03T04:23:22.864Z,1010.43
2022-11-03T04:24:22.997Z,1010.42
2022-11-03T04:25:22.838Z,1010.38
2022-11-03T04:26:22.832Z,1010.36
2022-11-03T04:27:22.926Z,1010.38
2022-11-03T04:28:23.141Z,1010.37
2022-11-03T04:29:22.955Z,1010.36
2022-11-03T04:30:22.774Z,1010.28
2022-11-03T04:31:22.768Z,1010.30
2022-11-03T04:32:22.745Z,1010.30
2022-11-03T04:33:22.832Z,1010.18
2022-11-03T04:34:22.776Z,1010.23
2022-11-03T04:35:22.706Z,1010.20
2022-11-03T04:36:22.737Z,1010.22
2022-11-03T04:37:23.341Z,1010.22
2022-11-03T04:38:22.669Z,1010.15
2022-11-03T04:39:22.765Z,1010.19
2022-11-03T04:40:22.641Z,1010.18
2022-11-03T04:41:22.625Z,1010.21
2022-11-03T04:42:22.643Z,1010.14
2022-11-03T04:43:23.141Z,1010.08
2022-11-03T04:44:22.589Z,1010.12
2022-11-03T04:45:22.623Z,1010.13
2022-11-03T04:46:22.581Z,1010.10
2022-11-03T04:47:22.562Z,1010.12
2022-11-03T04:48:23.353Z,1010.06
2022-11-03T04:49:22.881Z,1010.02
2022-11-03T04:50:22.892Z,1010.02
2022-11-03T04:51:22.513Z,1009.97
2022-11-03T04:52:22.474Z,1009.93
2022-11-03T04:53:22.491Z,1009.97
2022-11-03T04:54:22.458Z,1010.02
2022-11-03T04:55:22.454Z,1009.99
2022-11-03T04:56:22.478Z,1009.98
2022-11-03T04:57:22.425Z,1009.97
2022-11-03T04:58:22.408Z,1009.85
2022-11-03T04:59:22.386Z,1009.91
2022-11-03T05:00:22.403Z,1009.95
2022-11-03T05:01:24.280Z,1009.90
2022-11-03T05:02:22.365Z,1009.87
2022-11-03T05:03:22.455Z,1009.88
2022-11-03T05:04:22.458Z,1009.81
2022-11-03T05:05:22.306Z,1009.90
2022-11-03T05:06:22.451Z,1009.88
2022-11-03T05:07:22.305Z,1009.85
2022-11-03T05:08:22.450Z,1009.79
2022-11-03T05:09:22.381Z,1009.84
2022-11-03T05:10:22.240Z,1009.79
2022-11-03T05:11:22.232Z,1009.82
2022-11-03T05:12:22.443Z,1009.78
2022-11-03T05:13:22.203Z,1009.71
2022-11-03T05:14:22.190Z,1009.67
2022-11-03T05:15:22.233Z,1009.75
2022-11-03T05:16:22.166Z,1009.72
2022-11-03T05:17:22.322Z,1009.73
2022-11-03T05:18:22.179Z,1009.68
2022-11-03T05:19:22.122Z,1009.63
2022-11-03T05:20:22.402Z,1009.67
2022-11-03T05:21:22.140Z,1009.68
2022-11-03T05:22:22.492Z,1009.65
2022-11-03T05:23:22.435Z,1009.57
2022-11-03T05:24:22.426Z,1009.57
2022-11-03T05:25:22.439Z,1009.47
2022-11-03T05:26:22.032Z,1009.56
2022-11-03T05:27:22.469Z,1009.55
2022-11-03T05:28:22.029Z,1009.48
2022-11-03T05:29:22.426Z,1009.50
2022-11-03T05:30:22.223Z,1009.46
2022-11-03T05:31:22.004Z,1009.47
2022-11-03T05:32:22.647Z,1009.50
2022-11-03T05:33:21.957Z,1009.51
2022-11-03T05:34:21.966Z,1009.46
2022-11-03T05:35:21.915Z,1009.41
2022-11-03T05:36:21.907Z,1009.47
2022-11-03T05:37:26.135Z,1009.46
2022-11-03T05:38:21.931Z,1009.47
2022-11-03T05:39:21.959Z,1009.43
2022-11-03T05:40:21.860Z,1009.39
2022-11-03T05:41:21.838Z,1009.42
2022-11-03T05:42:21.827Z,1009.43
2022-11-03T05:43:22.427Z,1009.40
2022-11-03T05:44:21.809Z,1009.41
2022-11-03T05:45:21.904Z,1009.44
2022-11-03T05:46:21.779Z,1009.41
2022-11-03T05:47:21.759Z,1009.37
2022-11-03T05:48:22.744Z,1009.28
2022-11-03T05:49:21.734Z,1009.28
2022-11-03T05:50:21.721Z,1009.33
2022-11-03T05:51:22.423Z,1009.31
2022-11-03T05:52:22.431Z,1009.25
2022-11-03T05:53:21.700Z,1009.23
2022-11-03T05:54:21.672Z,1009.29
2022-11-03T05:55:21.700Z,1009.25
2022-11-03T05:56:21.652Z,1009.27
2022-11-03T05:57:21.672Z,1009.23
2022-11-03T05:58:21.625Z,1009.28
2022-11-03T05:59:22.213Z,1009.30
2022-11-03T06:00:22.295Z,1009.19
2022-11-03T06:01:21.736Z,1009.17
2022-11-03T06:02:21.694Z,1009.22
2022-11-03T06:03:21.594Z,1009.15
2022-11-03T06:04:21.567Z,1009.15
2022-11-03T06:05:21.602Z,1009.17
2022-11-03T06:06:21.622Z,1009.12
2022-11-03T06:07:21.657Z,1009.17
2022-11-03T06:08:21.602Z,1009.11
2022-11-03T06:09:21.688Z,1009.11
2022-11-03T06:10:21.715Z,1009.07
2022-11-03T06:11:21.737Z,1009.02
2022-11-03T06:12:21.738Z,1009.03
2022-11-03T06:13:21.470Z,1009.03
2022-11-03T06:14:24.323Z,1009.01
2022-11-03T06:15:21.818Z,1008.98
2022-11-03T06:16:21.639Z,1009.04
2022-11-03T06:17:21.388Z,1009.05
2022-11-03T06:18:21.911Z,1009.03
2022-11-03T06:19:22.050Z,1008.96
2022-11-03T06:20:21.339Z,1009.01
2022-11-03T06:21:21.889Z,1008.94
2022-11-03T06:22:22.053Z,1009.00
2022-11-03T06:23:21.389Z,1009.01
2022-11-03T06:24:22.050Z,1008.99
2022-11-03T06:25:21.838Z,1008.91
2022-11-03T06:26:22.081Z,1009.00
2022-11-03T06:27:21.363Z,1008.98
2022-11-03T06:28:21.252Z,1008.91
2022-11-03T06:29:22.046Z,1008.90
2022-11-03T06:30:21.914Z,1008.87
2022-11-03T06:31:23.289Z,1008.89
2022-11-03T06:32:21.218Z,1008.95
2022-11-03T06:33:21.335Z,1008.94
2022-11-03T06:34:21.434Z,1008.89
2022-11-03T06:35:21.393Z,1008.97
2022-11-03T06:36:21.513Z,1008.89
2022-11-03T06:37:21.306Z,1008.81
2022-11-03T06:38:21.315Z,1008.81
2022-11-03T06:39:21.271Z,1008.85
2022-11-03T06:40:21.476Z,1008.87
2022-11-03T06:41:21.075Z,1008.76
2022-11-03T06:42:21.432Z,1008.80
2022-11-03T06:43:21.147Z,1008.78
2022-11-03T06:44:21.508Z,1008.79
2022-11-03T06:45:21.328Z,1008.73
2022-11-03T06:46:21.858Z,1008.79
2022-11-03T06:47:21.818Z,1008.81
2022-11-03T06:48:21.230Z,1008.74
2022-11-03T06:49:21.300Z,1008.71
2022-11-03T06:50:21.739Z,1008.69
2022-11-03T06:51:21.890Z,1008.68
2022-11-03T06:52:21.239Z,1008.71
2022-11-03T06:53:21.758Z,1008.73
2022-11-03T06:54:21.060Z,1008.69
2022-11-03T06:55:21.485Z,1008.76
2022-11-03T06:56:21.620Z,1008.68
2022-11-03T06:57:20.884Z,1008.71
2022-11-03T06:58:20.883Z,1008.69
2022-11-03T06:59:20.905Z,1008.64
2022-11-03T07:00:38.731Z,1008.62
2022-11-03T07:01:21.907Z,1008.61
2022-11-03T07:02:21.031Z,1008.55
2022-11-03T07:03:20.942Z,1008.55
2022-11-03T07:04:20.979Z,1008.55
2022-11-03T07:05:20.918Z,1008.55
2022-11-03T07:06:20.990Z,1008.55
2022-11-03T07:07:20.996Z,1008.52
2022-11-03T07:08:21.007Z,1008.62
2022-11-03T07:09:21.673Z,1008.60
2022-11-03T07:10:21.013Z,1008.61
2022-11-03T07:11:21.085Z,1008.58
2022-11-03T07:12:21.087Z,1008.55
2022-11-03T07:13:21.016Z,1008.47
2022-11-03T07:14:20.937Z,1008.52
2022-11-03T07:15:21.145Z,1008.51
2022-11-03T07:16:21.190Z,1008.55
2022-11-03T07:17:21.201Z,1008.58
2022-11-03T07:18:21.199Z,1008.53
2022-11-03T07:19:20.987Z,1008.51
2022-11-03T07:20:20.997Z,1008.53
2022-11-03T07:21:20.568Z,1008.54
2022-11-03T07:22:21.288Z,1008.53
2022-11-03T07:23:20.849Z,1008.55
2022-11-03T07:24:20.538Z,1008.56
2022-11-03T07:25:20.848Z,1008.53
2022-11-03T07:26:21.192Z,1008.48
2022-11-03T07:27:20.512Z,1008.46
2022-11-03T07:28:21.108Z,1008.45
2022-11-03T07:29:21.435Z,1008.39
2022-11-03T07:30:20.497Z,1008.36
2022-11-03T07:31:21.112Z,1008.35
2022-11-03T07:32:21.261Z,1008.40
2022-11-03T07:33:20.828Z,1008.35
2022-11-03T07:34:20.812Z,1008.30
2022-11-03T07:35:20.431Z,1008.30
2022-11-03T07:36:20.765Z,1008.30
2022-11-03T07:37:21.157Z,1008.30
2022-11-03T07:38:20.963Z,1008.31
2022-11-03T07:39:20.345Z,1008.32
2022-11-03T07:40:20.324Z,1008.28
2022-11-03T07:41:20.372Z,1008.32
2022-11-03T07:42:20.365Z,1008.25
2022-11-03T07:43:20.334Z,1008.25
2022-11-03T07:44:20.885Z,1008.31
2022-11-03T07:45:20.327Z,1008.20
2022-11-03T07:46:20.320Z,1008.20
2022-11-03T07:47:20.318Z,1008.18
2022-11-03T07:48:20.319Z,1008.23
2022-11-03T07:49:20.317Z,1008.14
2022-11-03T07:50:20.315Z,1008.19
2022-11-03T07:51:21.136Z,1008.23
2022-11-03T07:52:20.310Z,1008.17
2022-11-03T07:53:25.709Z,1008.14
2022-11-03T07:54:21.799Z,1008.18
2022-11-03T07:55:21.080Z,1008.13
2022-11-03T07:56:20.379Z,1008.05
2022-11-03T07:57:21.059Z,1008.05
2022-11-03T07:58:20.323Z,1008.11
2022-11-03T07:59:20.126Z,1008.07
2022-11-03T08:00:20.302Z,1007.99
2022-11-03T08:01:20.316Z,1007.97
2022-11-03T08:02:21.071Z,1007.97
2022-11-03T08:03:21.022Z,1008.01
2022-11-03T08:04:20.027Z,1007.99
2022-11-03T08:06:20.112Z,1007.99
2022-11-03T08:07:20.015Z,1007.93
2022-11-03T08:08:19.983Z,1007.99
2022-11-03T08:09:19.978Z,1008.01
2022-11-03T08:10:19.945Z,1007.99
2022-11-03T08:11:22.008Z,1007.94
2022-11-03T08:12:19.915Z,1007.98
2022-11-03T08:13:19.958Z,1007.96
2022-11-03T08:14:20.760Z,1007.96
2022-11-03T08:15:19.905Z,1007.93
2022-11-03T08:16:19.978Z,1007.89
2022-11-03T08:17:20.797Z,1007.94
2022-11-03T08:18:20.239Z,1007.93
2022-11-03T08:19:20.807Z,1007.86
2022-11-03T08:20:19.830Z,1007.85
2022-11-03T08:21:19.867Z,1007.86
2022-11-03T08:22:19.989Z,1007.81
2022-11-03T08:23:25.735Z,1007.78
2022-11-03T08:24:20.808Z,1007.80
2022-11-03T08:25:19.898Z,1007.76
2022-11-03T08:26:20.710Z,1007.74
2022-11-03T08:27:20.098Z,1007.72
2022-11-03T08:28:20.281Z,1007.71
2022-11-03T08:29:19.932Z,1007.74
2022-11-03T08:30:20.022Z,1007.72
2022-11-03T08:31:19.781Z,1007.63
2022-11-03T08:32:20.610Z,1007.71
2022-11-03T08:33:19.836Z,1007.66
2022-11-03T08:34:20.583Z,1007.72
2022-11-03T08:35:20.173Z,1007.64
2022-11-03T08:36:20.245Z,1007.70
2022-11-03T08:37:19.756Z,1007.66
2022-11-03T08:38:20.282Z,1007.68
2022-11-03T08:39:19.643Z,1007.64
2022-11-03T08:40:19.590Z,1007.62
2022-11-03T08:41:19.610Z,1007.63
2022-11-03T08:42:20.273Z,1007.57
2022-11-03T08:43:19.514Z,1007.61
2022-11-03T08:44:19.714Z,1007.61
2022-11-03T08:45:20.065Z,1007.58
2022-11-03T08:46:19.487Z,1007.58
2022-11-03T08:47:19.748Z,1007.54
2022-11-03T08:48:19.481Z,1007.49
2022-11-03T08:49:20.130Z,1007.50
2022-11-03T08:50:19.607Z,1007.52
2022-11-03T08:51:20.247Z,1007.51
2022-11-03T08:52:19.599Z,1007.42
2022-11-03T08:53:19.418Z,1007.43
2022-11-03T08:54:19.548Z,1007.41
2022-11-03T08:55:19.831Z,1007.39
2022-11-03T08:56:22.408Z,1007.36
2022-11-03T08:57:20.249Z,1007.37
2022-11-03T08:58:19.497Z,1007.42
2022-11-03T08:59:19.600Z,1007.38
2022-11-03T09:00:19.329Z,1007.37
2022-11-03T09:01:19.308Z,1007.41
2022-11-03T09:02:19.502Z,1007.49
2022-11-03T09:03:19.544Z,1007.38
2022-11-03T09:04:19.272Z,1007.49
2022-11-03T09:05:19.402Z,1007.40
2022-11-03T09:06:19.600Z,1007.33
2022-11-03T09:07:19.335Z,1007.28
2022-11-03T09:10:22.262Z,1007.25
2022-11-03T09:11:19.207Z,1007.30
2022-11-03T09:12:19.304Z,1007.25
2022-11-03T09:13:19.132Z,1007.29
2022-11-03T09:14:19.125Z,1007.26
2022-11-03T09:15:19.142Z,1007.27
2022-11-03T09:16:19.203Z,1007.23
2022-11-03T09:17:19.105Z,1007.19
2022-11-03T09:18:19.082Z,1007.22
2022-11-03T09:19:19.212Z,1007.19
2022-11-03T09:20:19.186Z,1007.15
2022-11-03T09:21:19.247Z,1007.16
2022-11-03T09:22:19.149Z,1007.15
2022-11-03T09:23:19.138Z,1007.13
2022-11-03T09:24:19.142Z,1007.16
2022-11-03T09:25:19.128Z,1007.21
2022-11-03T09:26:18.964Z,1007.15
2022-11-03T09:27:19.368Z,1007.11
2022-11-03T09:28:18.970Z,1007.09
2022-11-03T09:29:19.232Z,1007.08
2022-11-03T09:30:19.075Z,1007.02
2022-11-03T09:31:18.953Z,1006.98
2022-11-03T09:32:23.236Z,1006.97
2022-11-03T09:33:19.257Z,1006.92
2022-11-03T09:34:19.152Z,1006.97
2022-11-03T09:35:19.382Z,1006.95
2022-11-03T09:36:19.516Z,1006.93
2022-11-03T09:37:18.892Z,1006.87
2022-11-03T09:38:18.873Z,1006.90
2022-11-03T09:39:19.178Z,1006.86
2022-11-03T09:40:19.214Z,1006.80
2022-11-03T09:41:35.163Z,1006.71
2022-11-03T09:42:20.233Z,1006.72
2022-11-03T09:43:18.746Z,1006.68
2022-11-03T09:44:18.735Z,1006.71
2022-11-03T09:45:18.725Z,1006.62
2022-11-03T09:46:19.337Z,1006.61
2022-11-03T09:47:18.717Z,1006.58
2022-11-03T09:48:18.822Z,1006.48
2022-11-03T09:49:18.697Z,1006.43
2022-11-03T09:50:18.806Z,1006.47
2022-11-03T09:51:18.638Z,1006.40
2022-11-03T09:52:18.707Z,1006.42
2022-11-03T09:53:18.725Z,1006.40
2022-11-03T09:54:18.617Z,1006.42
2022-11-03T09:55:18.731Z,1006.33
2022-11-03T09:56:18.719Z,1006.31
2022-11-03T09:57:18.731Z,1006.24
2022-11-03T09:58:18.729Z,1006.27
2022-11-03T09:59:18.782Z,1006.26
2022-11-03T10:00:18.567Z,1006.24
2022-11-03T10:01:18.788Z,1006.20
2022-11-03T10:02:18.750Z,1006.21
2022-11-03T10:03:19.051Z,1006.24
2022-11-03T10:04:18.885Z,1006.26
2022-11-03T10:05:19.245Z,1006.27
2022-11-03T10:06:18.712Z,1006.27
2022-11-03T10:07:18.744Z,1006.28
2022-11-03T10:08:22.449Z,1006.25
2022-11-03T10:09:18.734Z,1006.19
2022-11-03T10:10:18.735Z,1006.16
2022-11-03T10:11:18.392Z,1006.15
2022-11-03T10:12:18.447Z,1006.10
2022-11-03T10:13:18.365Z,1005.98
2022-11-03T10:14:18.665Z,1006.03
2022-11-03T10:15:18.755Z,1006.05
2022-11-03T10:16:18.744Z,1006.04
2022-11-03T10:17:18.308Z,1006.02
2022-11-03T10:18:18.477Z,1006.06
2022-11-03T10:19:18.690Z,1006.01
2022-11-03T10:20:18.359Z,1006.03
2022-11-03T10:21:18.268Z,1006.05
2022-11-03T10:22:18.284Z,1005.94
2022-11-03T10:23:18.275Z,1005.91
2022-11-03T10:24:18.290Z,1005.93
2022-11-03T10:25:18.200Z,1005.87
2022-11-03T10:26:18.180Z,1005.85
2022-11-03T10:27:18.207Z,1005.80
2022-11-03T10:28:18.202Z,1005.84
2022-11-03T10:30:18.180Z,1005.74
2022-11-03T10:31:18.193Z,1005.70
2022-11-03T10:32:18.151Z,1005.72
2022-11-03T10:33:18.173Z,1005.71
2022-11-03T10:34:18.314Z,1005.69
2022-11-03T10:35:18.174Z,1005.69
2022-11-03T10:36:18.209Z,1005.69
2022-11-03T10:37:18.124Z,1005.66
2022-11-03T10:38:18.174Z,1005.63
2022-11-03T10:39:18.175Z,1005.61
2022-11-03T10:40:46.749Z,1005.64
2022-11-03T10:41:19.799Z,1005.63
2022-11-03T10:42:18.169Z,1005.50
2022-11-03T10:43:18.017Z,1005.49
2022-11-03T10:44:18.094Z,1005.51
2022-11-03T10:45:18.167Z,1005.49
2022-11-03T10:46:36.391Z,1005.48
2022-11-03T10:47:18.949Z,1005.44
2022-11-03T10:48:18.138Z,1005.41
2022-11-03T10:49:18.168Z,1005.40
2022-11-03T10:50:17.942Z,1005.31
2022-11-03T10:51:17.871Z,1005.33
2022-11-03T10:52:18.149Z,1005.31
2022-11-03T10:53:18.183Z,1005.31
2022-11-03T10:54:18.099Z,1005.32
2022-11-03T10:55:20.664Z,1005.25
2022-11-03T10:56:18.821Z,1005.21
2022-11-03T10:57:17.800Z,1005.17
2022-11-03T10:58:17.923Z,1005.13
2022-11-03T10:59:17.766Z,1005.15
2022-11-03T11:00:17.969Z,1005.09
2022-11-03T11:01:17.966Z,1005.07
2022-11-03T11:02:17.954Z,1005.01
2022-11-03T11:03:20.721Z,1005.01
2022-11-03T11:04:18.212Z,1004.96
2022-11-03T11:05:17.727Z,1005.06
2022-11-03T11:06:17.874Z,1004.96
2022-11-03T11:07:17.666Z,1004.91
2022-11-03T11:08:17.757Z,1004.87
2022-11-03T11:09:17.838Z,1004.84
2022-11-03T11:10:17.677Z,1004.85
2022-11-03T11:11:17.857Z,1004.77
2022-11-03T11:12:17.747Z,1004.76
2022-11-03T11:13:17.681Z,1004.73
2022-11-03T11:14:17.937Z,1004.73
2022-11-03T11:15:17.870Z,1004.73
2022-11-03T11:16:17.688Z,1004.68
2022-11-03T11:17:17.900Z,1004.69
2022-11-03T11:18:17.834Z,1004.69
2022-11-03T11:19:17.520Z,1004.64
2022-11-03T11:20:17.960Z,1004.66
2022-11-03T11:21:17.752Z,1004.65
2022-11-03T11:22:17.600Z,1004.64
2022-11-03T11:23:17.632Z,1004.62
2022-11-03T11:24:17.921Z,1004.59
2022-11-03T11:25:17.439Z,1004.57
2022-11-03T11:26:17.770Z,1004.52
2022-11-03T11:27:18.373Z,1004.52
2022-11-03T11:28:17.905Z,1004.48
2022-11-03T11:29:17.594Z,1004.46
2022-11-03T11:30:17.344Z,1004.47
2022-11-03T11:31:17.371Z,1004.46
2022-11-03T11:32:17.365Z,1004.44
2022-11-03T11:33:17.326Z,1004.36
2022-11-03T11:34:17.445Z,1004.38
2022-11-03T11:35:17.307Z,1004.42
2022-11-03T11:36:17.335Z,1004.35
2022-11-03T11:37:17.446Z,1004.32
2022-11-03T11:38:17.288Z,1004.34
2022-11-03T11:39:17.338Z,1004.38
2022-11-03T11:40:17.507Z,1004.40
2022-11-03T11:41:17.279Z,1004.35
2022-11-03T11:42:17.240Z,1004.33
2022-11-03T11:43:17.549Z,1004.26
2022-11-03T11:44:17.469Z,1004.24
2022-11-03T11:45:17.577Z,1004.20
2022-11-03T11:46:17.305Z,1004.18
2022-11-03T11:47:17.380Z,1004.13
2022-11-03T11:48:18.971Z,1004.11
2022-11-03T11:49:17.274Z,1004.05
2022-11-03T11:50:17.102Z,1004.04
2022-11-03T11:51:17.370Z,1004.07
2022-11-03T11:52:19.130Z,1004.10
2022-11-03T11:53:17.083Z,1004.01
2022-11-03T11:54:18.106Z,1004.02
2022-11-03T11:55:17.221Z,1004.00
2022-11-03T11:56:17.013Z,1003.97
2022-11-03T11:57:17.261Z,1003.95
2022-11-03T11:58:17.008Z,1003.95
2022-11-03T11:59:21.514Z,1003.91
2022-11-03T12:00:17.978Z,1003.93
2022-11-03T12:01:17.377Z,1003.84
2022-11-03T12:02:16.947Z,1003.84
2022-11-03T12:03:17.267Z,1003.76
2022-11-03T12:05:17.287Z,1003.70
2022-11-03T12:06:17.068Z,1003.66
2022-11-03T12:07:17.089Z,1003.60
2022-11-03T12:08:16.973Z,1003.50
2022-11-03T12:09:17.173Z,1003.47
2022-11-03T12:10:17.252Z,1003.52
2022-11-03T12:11:17.272Z,1003.56